Bass Lake, California
Current Conditions -  °F | °C
As of 2:53 AM on Saturday 25 Oct 2014 (Local Time) from KMAE Reporting Station
Clear Clear  
Wind Chill: 57°   Ceiling: Unl
Heat Index: 57°   Visibility: 9mi
Dew Point: 50°   Wind: 8mph
Humidity: 77%   Direction: 360°N
Pressure: 29.95"   Gusts: NA
Location:  37.32°N, 119.56°W
Report Text: KMAE 250953Z AUTO 36007KT 9SM CLR 14/10 A2995 RMK AO2 SLP141 T01390100
Loading
Personal Weather Stations






























Interactive Weather Map
Tropical Storm Tracking
New forecast layout! Learn more

10-Day Weather Forecast

Advertisements
Track Severe Weather on mobile